sensor_id;sensor_type;location;lat;lon;timestamp;temperature;humidity
30534;DHT22;17318;52.390;9.754;2022-07-30T00:00:06;20.50;99.00
30534;DHT22;17318;52.390;9.754;2022-07-30T00:02:32;20.40;99.20
30534;DHT22;17318;52.390;9.754;2022-07-30T00:04:58;20.40;99.40
30534;DHT22;17318;52.390;9.754;2022-07-30T00:07:24;20.30;99.20
30534;DHT22;17318;52.390;9.754;2022-07-30T00:09:50;20.40;99.30
30534;DHT22;17318;52.390;9.754;2022-07-30T00:12:15;20.30;99.30
30534;DHT22;17318;52.390;9.754;2022-07-30T00:14:41;20.40;99.60
30534;DHT22;17318;52.390;9.754;2022-07-30T00:17:07;20.40;99.50
30534;DHT22;17318;52.390;9.754;2022-07-30T00:19:32;20.40;99.40
30534;DHT22;17318;52.390;9.754;2022-07-30T00:21:58;20.40;99.10
30534;DHT22;17318;52.390;9.754;2022-07-30T00:24:24;20.40;99.30
30534;DHT22;17318;52.390;9.754;2022-07-30T00:26:50;20.40;99.10
30534;DHT22;17318;52.390;9.754;2022-07-30T00:29:16;20.40;99.50
30534;DHT22;17318;52.390;9.754;2022-07-30T00:31:41;20.40;99.10
30534;DHT22;17318;52.390;9.754;2022-07-30T00:34:07;20.40;99.20
30534;DHT22;17318;52.390;9.754;2022-07-30T00:36:33;20.30;99.00
30534;DHT22;17318;52.390;9.754;2022-07-30T00:38:59;20.30;99.40
30534;DHT22;17318;52.390;9.754;2022-07-30T00:41:24;20.20;99.40
30534;DHT22;17318;52.390;9.754;2022-07-30T00:43:50;20.30;99.10
30534;DHT22;17318;52.390;9.754;2022-07-30T00:46:16;20.20;99.30
30534;DHT22;17318;52.390;9.754;2022-07-30T00:48:42;20.20;99.30
30534;DHT22;17318;52.390;9.754;2022-07-30T00:51:08;20.20;99.40
30534;DHT22;17318;52.390;9.754;2022-07-30T00:53:34;20.20;99.90
30534;DHT22;17318;52.390;9.754;2022-07-30T00:56:01;20.20;99.50
30534;DHT22;17318;52.390;9.754;2022-07-30T00:58:27;20.20;99.60
30534;DHT22;17318;52.390;9.754;2022-07-30T01:00:53;20.20;99.50
30534;DHT22;17318;52.390;9.754;2022-07-30T01:03:19;20.20;99.30
30534;DHT22;17318;52.390;9.754;2022-07-30T01:05:44;20.10;99.70
30534;DHT22;17318;52.390;9.754;2022-07-30T01:08:10;20.10;99.40
30534;DHT22;17318;52.390;9.754;2022-07-30T01:10:36;20.20;99.60
30534;DHT22;17318;52.390;9.754;2022-07-30T01:13:03;20.20;99.40
30534;DHT22;17318;52.390;9.754;2022-07-30T01:15:30;20.10;99.20
30534;DHT22;17318;52.390;9.754;2022-07-30T01:17:59;20.10;99.30
30534;DHT22;17318;52.390;9.754;2022-07-30T01:21:30;20.10;99.40
30534;DHT22;17318;52.390;9.754;2022-07-30T01:23:42;20.10;99.40
30534;DHT22;17318;52.390;9.754;2022-07-30T01:26:17;20.00;99.60
30534;DHT22;17318;52.390;9.754;2022-07-30T01:28:53;20.00;99.80
30534;DHT22;17318;52.390;9.754;2022-07-30T01:31:21;20.00;99.70
30534;DHT22;17318;52.390;9.754;2022-07-30T01:33:48;20.00;99.70
30534;DHT22;17318;52.390;9.754;2022-07-30T01:36:17;20.00;99.80
30534;DHT22;17318;52.390;9.754;2022-07-30T01:38:46;20.00;99.70
30534;DHT22;17318;52.390;9.754;2022-07-30T01:41:14;20.00;99.70
30534;DHT22;17318;52.390;9.754;2022-07-30T01:43:41;20.00;99.60
30534;DHT22;17318;52.390;9.754;2022-07-30T01:46:11;20.10;99.70
30534;DHT22;17318;52.390;9.754;2022-07-30T01:48:40;20.10;99.80
30534;DHT22;17318;52.390;9.754;2022-07-30T01:51:11;20.10;99.50
30534;DHT22;17318;52.390;9.754;2022-07-30T01:53:38;20.00;99.80
30534;DHT22;17318;52.390;9.754;2022-07-30T01:56:10;20.00;99.80
30534;DHT22;17318;52.390;9.754;2022-07-30T01:58:39;20.00;99.90
30534;DHT22;17318;52.390;9.754;2022-07-30T02:01:10;20.00;99.70
30534;DHT22;17318;52.390;9.754;2022-07-30T02:03:35;20.00;99.50
30534;DHT22;17318;52.390;9.754;2022-07-30T02:06:18;20.00;99.90
30534;DHT22;17318;52.390;9.754;2022-07-30T02:08:57;20.00;99.90
30534;DHT22;17318;52.390;9.754;2022-07-30T02:11:23;20.00;99.90
30534;DHT22;17318;52.390;9.754;2022-07-30T02:14:22;19.90;99.90
30534;DHT22;17318;52.390;9.754;2022-07-30T02:16:53;19.70;99.90
30534;DHT22;17318;52.390;9.754;2022-07-30T02:19:21;19.80;99.90
30534;DHT22;17318;52.390;9.754;2022-07-30T02:22:00;19.80;99.90
30534;DHT22;17318;52.390;9.754;2022-07-30T02:24:28;19.80;99.90
30534;DHT22;17318;52.390;9.754;2022-07-30T02:26:57;19.80;99.90
30534;DHT22;17318;52.390;9.754;2022-07-30T02:29:24;19.80;99.90
30534;DHT22;17318;52.390;9.754;2022-07-30T02:31:53;19.80;99.90
30534;DHT22;17318;52.390;9.754;2022-07-30T02:34:23;19.80;99.90
30534;DHT22;17318;52.390;9.754;2022-07-30T02:36:50;19.80;99.90
30534;DHT22;17318;52.390;9.754;2022-07-30T02:39:18;19.80;99.70
30534;DHT22;17318;52.390;9.754;2022-07-30T02:41:45;19.80;99.90
30534;DHT22;17318;52.390;9.754;2022-07-30T02:44:12;19.80;99.70
30534;DHT22;17318;52.390;9.754;2022-07-30T02:46:40;19.80;99.70
30534;DHT22;17318;52.390;9.754;2022-07-30T02:49:07;19.80;99.60
30534;DHT22;17318;52.390;9.754;2022-07-30T02:51:34;19.80;99.60
30534;DHT22;17318;52.390;9.754;2022-07-30T02:54:01;19.80;99.70
30534;DHT22;17318;52.390;9.754;2022-07-30T02:56:29;19.80;99.90
30534;DHT22;17318;52.390;9.754;2022-07-30T02:58:56;19.70;99.90
30534;DHT22;17318;52.390;9.754;2022-07-30T03:01:23;19.70;99.80
30534;DHT22;17318;52.390;9.754;2022-07-30T03:03:50;19.70;99.80
30534;DHT22;17318;52.390;9.754;2022-07-30T03:06:17;19.70;99.90
30534;DHT22;17318;52.390;9.754;2022-07-30T03:08:44;19.60;99.80
30534;DHT22;17318;52.390;9.754;2022-07-30T03:11:11;19.60;99.70
30534;DHT22;17318;52.390;9.754;2022-07-30T03:13:37;19.70;99.90
30534;DHT22;17318;52.390;9.754;2022-07-30T03:16:12;19.60;99.90
30534;DHT22;17318;52.390;9.754;2022-07-30T03:18:41;19.60;99.90
30534;DHT22;17318;52.390;9.754;2022-07-30T03:21:15;19.60;99.90
30534;DHT22;17318;52.390;9.754;2022-07-30T03:23:43;19.60;99.90
30534;DHT22;17318;52.390;9.754;2022-07-30T03:26:12;19.60;99.90
30534;DHT22;17318;52.390;9.754;2022-07-30T03:28:39;19.60;99.90
30534;DHT22;17318;52.390;9.754;2022-07-30T03:31:13;19.50;99.90
30534;DHT22;17318;52.390;9.754;2022-07-30T03:33:40;19.50;99.90
30534;DHT22;17318;52.390;9.754;2022-07-30T03:36:16;19.50;99.90
30534;DHT22;17318;52.390;9.754;2022-07-30T03:38:43;19.40;99.90
30534;DHT22;17318;52.390;9.754;2022-07-30T03:41:12;19.50;99.90
30534;DHT22;17318;52.390;9.754;2022-07-30T03:43:39;19.40;99.90
30534;DHT22;17318;52.390;9.754;2022-07-30T03:46:15;19.40;99.90
30534;DHT22;17318;52.390;9.754;2022-07-30T03:48:43;19.40;99.90
30534;DHT22;17318;52.390;9.754;2022-07-30T03:51:12;19.40;99.90
30534;DHT22;17318;52.390;9.754;2022-07-30T03:53:39;19.40;99.90
30534;DHT22;17318;52.390;9.754;2022-07-30T03:56:13;19.40;99.90
30534;DHT22;17318;52.390;9.754;2022-07-30T03:58:39;19.40;99.90
30534;DHT22;17318;52.390;9.754;2022-07-30T04:01:11;19.30;99.90
30534;DHT22;17318;52.390;9.754;2022-07-30T04:03:36;19.30;99.90
30534;DHT22;17318;52.390;9.754;2022-07-30T04:06:03;19.30;99.90
30534;DHT22;17318;52.390;9.754;2022-07-30T04:08:29;19.40;99.90
30534;DHT22;17318;52.390;9.754;2022-07-30T04:10:55;19.40;99.90
30534;DHT22;17318;52.390;9.754;2022-07-30T04:13:21;19.40;99.90
30534;DHT22;17318;52.390;9.754;2022-07-30T04:18:52;19.30;99.90
30534;DHT22;17318;52.390;9.754;2022-07-30T04:21:19;19.30;99.90
30534;DHT22;17318;52.390;9.754;2022-07-30T04:23:49;19.20;99.90
30534;DHT22;17318;52.390;9.754;2022-07-30T04:26:16;19.20;99.90
30534;DHT22;17318;52.390;9.754;2022-07-30T04:28:42;19.20;99.90
30534;DHT22;17318;52.390;9.754;2022-07-30T04:31:15;19.20;99.90
30534;DHT22;17318;52.390;9.754;2022-07-30T04:33:44;19.10;99.90
30534;DHT22;17318;52.390;9.754;2022-07-30T04:36:13;19.10;99.90
30534;DHT22;17318;52.390;9.754;2022-07-30T04:38:38;19.00;99.90
30534;DHT22;17318;52.390;9.754;2022-07-30T04:41:10;19.00;99.90
30534;DHT22;17318;52.390;9.754;2022-07-30T04:43:36;19.00;99.90
30534;DHT22;17318;52.390;9.754;2022-07-30T04:46:02;19.00;99.90
30534;DHT22;17318;52.390;9.754;2022-07-30T04:48:43;19.00;99.90
30534;DHT22;17318;52.390;9.754;2022-07-30T04:51:17;19.00;99.90
30534;DHT22;17318;52.390;9.754;2022-07-30T04:53:44;19.00;99.90
30534;DHT22;17318;52.390;9.754;2022-07-30T04:56:14;19.00;99.90
30534;DHT22;17318;52.390;9.754;2022-07-30T04:58:41;19.00;99.90
30534;DHT22;17318;52.390;9.754;2022-07-30T05:01:15;19.00;99.90
30534;DHT22;17318;52.390;9.754;2022-07-30T05:03:43;19.00;99.90
30534;DHT22;17318;52.390;9.754;2022-07-30T05:06:17;18.90;99.90
30534;DHT22;17318;52.390;9.754;2022-07-30T05:08:43;18.90;99.90
30534;DHT22;17318;52.390;9.754;2022-07-30T05:11:15;18.90;99.90
30534;DHT22;17318;52.390;9.754;2022-07-30T05:13:43;18.90;99.90
30534;DHT22;17318;52.390;9.754;2022-07-30T05:16:15;18.90;99.90
30534;DHT22;17318;52.390;9.754;2022-07-30T05:18:41;19.00;99.90
30534;DHT22;17318;52.390;9.754;2022-07-30T05:21:13;19.00;99.90
30534;DHT22;17318;52.390;9.754;2022-07-30T05:23:38;19.00;99.90
30534;DHT22;17318;52.390;9.754;2022-07-30T05:26:20;19.00;99.90
30534;DHT22;17318;52.390;9.754;2022-07-30T05:28:46;19.00;99.90
30534;DHT22;17318;52.390;9.754;2022-07-30T05:31:11;19.00;99.90
30534;DHT22;17318;52.390;9.754;2022-07-30T05:33:37;19.10;99.90
30534;DHT22;17318;52.390;9.754;2022-07-30T05:36:03;19.10;99.90
30534;DHT22;17318;52.390;9.754;2022-07-30T05:38:29;19.10;99.90
30534;DHT22;17318;52.390;9.754;2022-07-30T05:40:54;19.20;99.90
30534;DHT22;17318;52.390;9.754;2022-07-30T05:43:20;19.20;99.90
30534;DHT22;17318;52.390;9.754;2022-07-30T05:45:46;19.20;99.90
30534;DHT22;17318;52.390;9.754;2022-07-30T05:48:11;19.20;99.90
30534;DHT22;17318;52.390;9.754;2022-07-30T05:50:37;19.20;99.90
30534;DHT22;17318;52.390;9.754;2022-07-30T05:53:02;19.20;99.90
30534;DHT22;17318;52.390;9.754;2022-07-30T05:55:28;19.10;99.90
30534;DHT22;17318;52.390;9.754;2022-07-30T05:57:54;19.20;99.90
30534;DHT22;17318;52.390;9.754;2022-07-30T06:00:19;19.20;99.90
30534;DHT22;17318;52.390;9.754;2022-07-30T06:02:45;19.20;99.90
30534;DHT22;17318;52.390;9.754;2022-07-30T06:05:11;19.20;99.90
30534;DHT22;17318;52.390;9.754;2022-07-30T06:07:36;19.20;99.90
30534;DHT22;17318;52.390;9.754;2022-07-30T06:10:03;19.20;99.90
30534;DHT22;17318;52.390;9.754;2022-07-30T06:12:29;19.20;99.90
30534;DHT22;17318;52.390;9.754;2022-07-30T06:14:55;19.10;99.90
30534;DHT22;17318;52.390;9.754;2022-07-30T06:17:21;19.20;99.90
30534;DHT22;17318;52.390;9.754;2022-07-30T06:19:47;19.20;99.90
30534;DHT22;17318;52.390;9.754;2022-07-30T06:22:13;19.10;99.90
30534;DHT22;17318;52.390;9.754;2022-07-30T06:24:39;19.20;99.90
30534;DHT22;17318;52.390;9.754;2022-07-30T06:27:05;19.20;99.90
30534;DHT22;17318;52.390;9.754;2022-07-30T06:29:30;19.30;99.90
30534;DHT22;17318;52.390;9.754;2022-07-30T06:31:56;19.30;99.90
30534;DHT22;17318;52.390;9.754;2022-07-30T06:34:22;19.40;99.90
30534;DHT22;17318;52.390;9.754;2022-07-30T06:36:48;19.40;99.90
30534;DHT22;17318;52.390;9.754;2022-07-30T06:39:13;19.30;99.90
30534;DHT22;17318;52.390;9.754;2022-07-30T06:41:39;19.20;99.90
30534;DHT22;17318;52.390;9.754;2022-07-30T06:44:05;19.30;99.90
30534;DHT22;17318;52.390;9.754;2022-07-30T06:46:31;19.30;99.90
30534;DHT22;17318;52.390;9.754;2022-07-30T06:48:56;19.40;99.90
30534;DHT22;17318;52.390;9.754;2022-07-30T06:51:22;19.40;99.90
30534;DHT22;17318;52.390;9.754;2022-07-30T06:53:48;19.50;99.90
30534;DHT22;17318;52.390;9.754;2022-07-30T06:56:16;19.50;99.90
30534;DHT22;17318;52.390;9.754;2022-07-30T06:58:42;19.60;99.90
30534;DHT22;17318;52.390;9.754;2022-07-30T07:01:14;19.70;99.90
30534;DHT22;17318;52.390;9.754;2022-07-30T07:03:39;19.70;99.90
30534;DHT22;17318;52.390;9.754;2022-07-30T07:06:05;19.80;99.90
30534;DHT22;17318;52.390;9.754;2022-07-30T07:08:40;19.90;99.90
30534;DHT22;17318;52.390;9.754;2022-07-30T07:11:12;19.90;99.90
30534;DHT22;17318;52.390;9.754;2022-07-30T07:13:38;20.00;99.90
30534;DHT22;17318;52.390;9.754;2022-07-30T07:16:04;20.10;99.90
30534;DHT22;17318;52.390;9.754;2022-07-30T07:18:30;20.20;99.90
30534;DHT22;17318;52.390;9.754;2022-07-30T07:20:55;20.30;99.90
30534;DHT22;17318;52.390;9.754;2022-07-30T07:23:21;20.40;99.90
30534;DHT22;17318;52.390;9.754;2022-07-30T07:25:47;20.40;99.90
30534;DHT22;17318;52.390;9.754;2022-07-30T07:28:13;20.50;99.90
30534;DHT22;17318;52.390;9.754;2022-07-30T07:30:40;20.60;99.90
30534;DHT22;17318;52.390;9.754;2022-07-30T07:33:05;20.60;99.90
30534;DHT22;17318;52.390;9.754;2022-07-30T07:35:32;20.70;99.90
30534;DHT22;17318;52.390;9.754;2022-07-30T07:37:57;20.80;99.90
30534;DHT22;17318;52.390;9.754;2022-07-30T07:40:23;21.00;99.90
30534;DHT22;17318;52.390;9.754;2022-07-30T07:42:49;21.00;99.90
30534;DHT22;17318;52.390;9.754;2022-07-30T07:45:14;21.10;99.90
30534;DHT22;17318;52.390;9.754;2022-07-30T07:47:48;21.20;99.90
30534;DHT22;17318;52.390;9.754;2022-07-30T07:50:15;21.30;99.90
30534;DHT22;17318;52.390;9.754;2022-07-30T07:52:41;21.40;99.90
30534;DHT22;17318;52.390;9.754;2022-07-30T07:55:08;21.40;99.00
30534;DHT22;17318;52.390;9.754;2022-07-30T07:57:38;21.40;99.20
30534;DHT22;17318;52.390;9.754;2022-07-30T08:00:05;21.50;99.20
30534;DHT22;17318;52.390;9.754;2022-07-30T08:02:31;21.50;99.40
30534;DHT22;17318;52.390;9.754;2022-07-30T08:04:59;21.60;99.30
30534;DHT22;17318;52.390;9.754;2022-07-30T08:07:25;21.80;98.90
30534;DHT22;17318;52.390;9.754;2022-07-30T08:09:50;21.80;97.80
30534;DHT22;17318;52.390;9.754;2022-07-30T08:12:18;21.70;97.50
30534;DHT22;17318;52.390;9.754;2022-07-30T08:14:47;21.70;97.50
30534;DHT22;17318;52.390;9.754;2022-07-30T08:17:13;22.00;98.20
30534;DHT22;17318;52.390;9.754;2022-07-30T08:19:39;22.10;98.10
30534;DHT22;17318;52.390;9.754;2022-07-30T08:22:05;22.10;97.70
30534;DHT22;17318;52.390;9.754;2022-07-30T08:24:31;22.00;97.20
30534;DHT22;17318;52.390;9.754;2022-07-30T08:26:57;22.00;97.10
30534;DHT22;17318;52.390;9.754;2022-07-30T08:29:23;22.20;97.00
30534;DHT22;17318;52.390;9.754;2022-07-30T08:31:49;22.40;96.70
30534;DHT22;17318;52.390;9.754;2022-07-30T08:34:14;22.50;96.50
30534;DHT22;17318;52.390;9.754;2022-07-30T08:36:40;22.50;97.10
30534;DHT22;17318;52.390;9.754;2022-07-30T08:39:06;22.70;96.70
30534;DHT22;17318;52.390;9.754;2022-07-30T08:41:32;22.80;96.60
30534;DHT22;17318;52.390;9.754;2022-07-30T08:43:59;22.80;96.70
30534;DHT22;17318;52.390;9.754;2022-07-30T08:46:26;22.90;96.60
30534;DHT22;17318;52.390;9.754;2022-07-30T08:48:54;22.90;96.60
30534;DHT22;17318;52.390;9.754;2022-07-30T08:51:21;22.80;96.00
30534;DHT22;17318;52.390;9.754;2022-07-30T08:53:47;22.80;96.10
30534;DHT22;17318;52.390;9.754;2022-07-30T08:56:16;23.10;96.40
30534;DHT22;17318;52.390;9.754;2022-07-30T08:58:43;23.90;96.30
30534;DHT22;17318;52.390;9.754;2022-07-30T09:01:15;24.40;95.60
30534;DHT22;17318;52.390;9.754;2022-07-30T09:03:41;24.20;94.20
30534;DHT22;17318;52.390;9.754;2022-07-30T09:06:19;24.20;94.20
30534;DHT22;17318;52.390;9.754;2022-07-30T09:08:45;24.60;94.20
30534;DHT22;17318;52.390;9.754;2022-07-30T09:11:16;24.60;94.10
30534;DHT22;17318;52.390;9.754;2022-07-30T09:13:43;24.60;93.60
30534;DHT22;17318;52.390;9.754;2022-07-30T09:16:23;24.50;93.10
30534;DHT22;17318;52.390;9.754;2022-07-30T09:18:50;24.60;93.00
30534;DHT22;17318;52.390;9.754;2022-07-30T09:21:19;24.90;92.70
30534;DHT22;17318;52.390;9.754;2022-07-30T09:26:19;26.20;92.50
30534;DHT22;17318;52.390;9.754;2022-07-30T09:28:45;26.20;90.80
30534;DHT22;17318;52.390;9.754;2022-07-30T09:31:21;26.20;91.70
30534;DHT22;17318;52.390;9.754;2022-07-30T09:33:48;26.30;91.30
30534;DHT22;17318;52.390;9.754;2022-07-30T09:36:15;26.10;90.40
30534;DHT22;17318;52.390;9.754;2022-07-30T09:38:49;25.60;90.90
30534;DHT22;17318;52.390;9.754;2022-07-30T09:41:18;25.20;91.70
30534;DHT22;17318;52.390;9.754;2022-07-30T09:43:46;25.40;92.10
30534;DHT22;17318;52.390;9.754;2022-07-30T09:46:14;25.60;92.00
30534;DHT22;17318;52.390;9.754;2022-07-30T09:48:40;25.40;91.80
30534;DHT22;17318;52.390;9.754;2022-07-30T09:51:10;25.50;91.70
30534;DHT22;17318;52.390;9.754;2022-07-30T09:53:44;26.10;91.50
30534;DHT22;17318;52.390;9.754;2022-07-30T09:56:24;26.30;91.50
30534;DHT22;17318;52.390;9.754;2022-07-30T09:58:51;26.70;91.20
30534;DHT22;17318;52.390;9.754;2022-07-30T10:01:16;27.30;90.10
30534;DHT22;17318;52.390;9.754;2022-07-30T10:03:42;27.10;88.60
30534;DHT22;17318;52.390;9.754;2022-07-30T10:06:09;27.10;89.80
30534;DHT22;17318;52.390;9.754;2022-07-30T10:08:43;27.30;88.80
30534;DHT22;17318;52.390;9.754;2022-07-30T10:11:11;27.70;88.70
30534;DHT22;17318;52.390;9.754;2022-07-30T10:13:38;27.80;88.10
30534;DHT22;17318;52.390;9.754;2022-07-30T10:16:10;27.90;86.60
30534;DHT22;17318;52.390;9.754;2022-07-30T10:18:36;27.70;85.50
30534;DHT22;17318;52.390;9.754;2022-07-30T10:21:03;28.00;85.10
30534;DHT22;17318;52.390;9.754;2022-07-30T10:23:29;27.50;84.60
30534;DHT22;17318;52.390;9.754;2022-07-30T10:26:00;27.40;85.20
30534;DHT22;17318;52.390;9.754;2022-07-30T10:28:28;27.60;84.30
30534;DHT22;17318;52.390;9.754;2022-07-30T10:30:55;27.60;83.80
30534;DHT22;17318;52.390;9.754;2022-07-30T10:33:28;27.50;83.80
30534;DHT22;17318;52.390;9.754;2022-07-30T10:35:55;27.40;83.70
30534;DHT22;17318;52.390;9.754;2022-07-30T10:38:26;27.10;83.90
30534;DHT22;17318;52.390;9.754;2022-07-30T10:40:58;27.10;83.10
30534;DHT22;17318;52.390;9.754;2022-07-30T10:43:33;27.20;82.60
30534;DHT22;17318;52.390;9.754;2022-07-30T10:48:50;27.10;81.80
30534;DHT22;17318;52.390;9.754;2022-07-30T10:51:16;27.00;81.10
30534;DHT22;17318;52.390;9.754;2022-07-30T10:53:44;27.10;81.00
30534;DHT22;17318;52.390;9.754;2022-07-30T10:56:10;27.10;80.10
30534;DHT22;17318;52.390;9.754;2022-07-30T10:59:03;27.30;78.40
30534;DHT22;17318;52.390;9.754;2022-07-30T11:06:47;27.10;79.60
30534;DHT22;17318;52.390;9.754;2022-07-30T11:09:35;27.20;79.80
30534;DHT22;17318;52.390;9.754;2022-07-30T11:12:08;27.00;79.70
30534;DHT22;17318;52.390;9.754;2022-07-30T11:17:15;27.00;78.20
30534;DHT22;17318;52.390;9.754;2022-07-30T11:22:40;27.10;77.70
30534;DHT22;17318;52.390;9.754;2022-07-30T11:25:07;27.10;77.20
30534;DHT22;17318;52.390;9.754;2022-07-30T11:32:44;27.40;76.10
30534;DHT22;17318;52.390;9.754;2022-07-30T11:38:13;27.20;74.90
30534;DHT22;17318;52.390;9.754;2022-07-30T11:43:30;27.00;76.10
30534;DHT22;17318;52.390;9.754;2022-07-30T11:46:19;27.10;75.90
30534;DHT22;17318;52.390;9.754;2022-07-30T11:49:01;27.30;76.60
30534;DHT22;17318;52.390;9.754;2022-07-30T11:51:39;27.40;76.70
30534;DHT22;17318;52.390;9.754;2022-07-30T11:54:07;27.20;77.20
30534;DHT22;17318;52.390;9.754;2022-07-30T11:56:36;27.20;77.50
30534;DHT22;17318;52.390;9.754;2022-07-30T11:59:11;27.10;78.00
30534;DHT22;17318;52.390;9.754;2022-07-30T12:01:37;26.90;78.60
30534;DHT22;17318;52.390;9.754;2022-07-30T12:04:04;27.00;79.10
30534;DHT22;17318;52.390;9.754;2022-07-30T12:06:31;27.10;78.40
30534;DHT22;17318;52.390;9.754;2022-07-30T12:08:58;27.00;78.30
30534;DHT22;17318;52.390;9.754;2022-07-30T12:11:33;26.90;77.60
30534;DHT22;17318;52.390;9.754;2022-07-30T12:14:01;26.90;77.80
30534;DHT22;17318;52.390;9.754;2022-07-30T12:16:28;26.60;77.90
30534;DHT22;17318;52.390;9.754;2022-07-30T12:19:03;26.60;78.10
30534;DHT22;17318;52.390;9.754;2022-07-30T12:21:30;26.50;78.10
30534;DHT22;17318;52.390;9.754;2022-07-30T12:24:00;26.40;77.70
30534;DHT22;17318;52.390;9.754;2022-07-30T12:26:29;26.60;78.00
30534;DHT22;17318;52.390;9.754;2022-07-30T12:29:01;26.70;76.80
30534;DHT22;17318;52.390;9.754;2022-07-30T12:31:28;26.80;76.00
30534;DHT22;17318;52.390;9.754;2022-07-30T12:33:54;26.70;75.70
30534;DHT22;17318;52.390;9.754;2022-07-30T12:36:29;26.70;76.60
30534;DHT22;17318;52.390;9.754;2022-07-30T12:38:55;26.70;76.70
30534;DHT22;17318;52.390;9.754;2022-07-30T12:41:23;26.80;76.80
30534;DHT22;17318;52.390;9.754;2022-07-30T12:44:04;26.80;75.00
30534;DHT22;17318;52.390;9.754;2022-07-30T12:46:37;26.80;75.50
30534;DHT22;17318;52.390;9.754;2022-07-30T12:49:04;27.00;74.40
30534;DHT22;17318;52.390;9.754;2022-07-30T12:51:50;27.00;73.60
30534;DHT22;17318;52.390;9.754;2022-07-30T12:54:17;27.00;74.50
30534;DHT22;17318;52.390;9.754;2022-07-30T12:57:04;27.10;74.40
30534;DHT22;17318;52.390;9.754;2022-07-30T12:59:31;27.10;74.60
30534;DHT22;17318;52.390;9.754;2022-07-30T13:01:58;27.10;74.80
30534;DHT22;17318;52.390;9.754;2022-07-30T13:04:28;27.10;74.20
30534;DHT22;17318;52.390;9.754;2022-07-30T13:07:05;27.10;74.30
30534;DHT22;17318;52.390;9.754;2022-07-30T13:09:31;27.10;74.50
30534;DHT22;17318;52.390;9.754;2022-07-30T13:11:56;27.10;74.50
30534;DHT22;17318;52.390;9.754;2022-07-30T13:14:22;27.20;74.50
30534;DHT22;17318;52.390;9.754;2022-07-30T13:16:48;27.10;74.40
30534;DHT22;17318;52.390;9.754;2022-07-30T13:19:14;27.10;73.80
30534;DHT22;17318;52.390;9.754;2022-07-30T13:21:40;27.10;74.30
30534;DHT22;17318;52.390;9.754;2022-07-30T13:24:07;27.20;74.10
30534;DHT22;17318;52.390;9.754;2022-07-30T13:26:33;27.20;74.20
30534;DHT22;17318;52.390;9.754;2022-07-30T13:29:01;27.20;73.60
30534;DHT22;17318;52.390;9.754;2022-07-30T13:31:28;27.10;74.10
30534;DHT22;17318;52.390;9.754;2022-07-30T13:33:54;27.00;74.30
30534;DHT22;17318;52.390;9.754;2022-07-30T13:36:29;27.00;74.40
30534;DHT22;17318;52.390;9.754;2022-07-30T13:38:54;27.00;74.30
30534;DHT22;17318;52.390;9.754;2022-07-30T13:41:33;27.00;73.70
30534;DHT22;17318;52.390;9.754;2022-07-30T13:44:00;27.00;73.60
30534;DHT22;17318;52.390;9.754;2022-07-30T13:46:25;27.00;73.20
30534;DHT22;17318;52.390;9.754;2022-07-30T13:48:51;27.00;72.60
30534;DHT22;17318;52.390;9.754;2022-07-30T13:51:23;27.00;71.50
30534;DHT22;17318;52.390;9.754;2022-07-30T13:53:49;26.70;70.40
30534;DHT22;17318;52.390;9.754;2022-07-30T13:56:27;26.70;71.90
30534;DHT22;17318;52.390;9.754;2022-07-30T13:58:52;26.80;71.30
30534;DHT22;17318;52.390;9.754;2022-07-30T14:01:19;26.80;71.50
30534;DHT22;17318;52.390;9.754;2022-07-30T14:03:45;26.90;71.20
30534;DHT22;17318;52.390;9.754;2022-07-30T14:06:23;26.70;69.80
30534;DHT22;17318;52.390;9.754;2022-07-30T14:08:48;26.60;70.10
30534;DHT22;17318;52.390;9.754;2022-07-30T14:11:17;26.60;70.00
30534;DHT22;17318;52.390;9.754;2022-07-30T14:13:44;26.60;71.70
30534;DHT22;17318;52.390;9.754;2022-07-30T14:16:22;26.70;71.30
30534;DHT22;17318;52.390;9.754;2022-07-30T14:18:48;26.60;70.50
30534;DHT22;17318;52.390;9.754;2022-07-30T14:21:39;26.70;71.30
30534;DHT22;17318;52.390;9.754;2022-07-30T14:24:04;26.70;70.40
30534;DHT22;17318;52.390;9.754;2022-07-30T14:26:30;26.60;70.40
30534;DHT22;17318;52.390;9.754;2022-07-30T14:28:56;26.60;71.30
30534;DHT22;17318;52.390;9.754;2022-07-30T14:31:30;26.60;70.60
30534;DHT22;17318;52.390;9.754;2022-07-30T14:33:56;26.50;70.70
30534;DHT22;17318;52.390;9.754;2022-07-30T14:36:21;26.60;71.30
30534;DHT22;17318;52.390;9.754;2022-07-30T14:38:47;26.60;71.30
30534;DHT22;17318;52.390;9.754;2022-07-30T14:41:38;26.60;71.90
30534;DHT22;17318;52.390;9.754;2022-07-30T14:44:04;26.60;73.00
30534;DHT22;17318;52.390;9.754;2022-07-30T14:46:30;26.60;74.00
30534;DHT22;17318;52.390;9.754;2022-07-30T14:48:56;26.60;74.40
30534;DHT22;17318;52.390;9.754;2022-07-30T14:51:31;26.60;74.70
30534;DHT22;17318;52.390;9.754;2022-07-30T14:53:56;26.50;75.40
30534;DHT22;17318;52.390;9.754;2022-07-30T14:56:25;26.50;75.20
30534;DHT22;17318;52.390;9.754;2022-07-30T14:58:51;26.30;74.90
30534;DHT22;17318;52.390;9.754;2022-07-30T15:01:21;26.40;75.00
30534;DHT22;17318;52.390;9.754;2022-07-30T15:03:46;26.40;75.10
30534;DHT22;17318;52.390;9.754;2022-07-30T15:06:34;26.40;74.40
30534;DHT22;17318;52.390;9.754;2022-07-30T15:09:01;26.30;74.70
30534;DHT22;17318;52.390;9.754;2022-07-30T15:11:27;26.30;74.70
30534;DHT22;17318;52.390;9.754;2022-07-30T15:13:52;26.30;75.00
30534;DHT22;17318;52.390;9.754;2022-07-30T15:16:22;26.30;75.10
30534;DHT22;17318;52.390;9.754;2022-07-30T15:18:48;26.30;75.30
30534;DHT22;17318;52.390;9.754;2022-07-30T15:21:36;26.20;75.30
30534;DHT22;17318;52.390;9.754;2022-07-30T15:24:01;26.10;76.00
30534;DHT22;17318;52.390;9.754;2022-07-30T15:26:30;26.10;76.50
30534;DHT22;17318;52.390;9.754;2022-07-30T15:28:56;26.00;76.80
30534;DHT22;17318;52.390;9.754;2022-07-30T15:31:31;25.90;77.10
30534;DHT22;17318;52.390;9.754;2022-07-30T15:33:57;25.90;77.30
30534;DHT22;17318;52.390;9.754;2022-07-30T15:36:29;25.90;77.60
30534;DHT22;17318;52.390;9.754;2022-07-30T15:38:55;25.90;77.70
30534;DHT22;17318;52.390;9.754;2022-07-30T15:41:26;25.90;77.60
30534;DHT22;17318;52.390;9.754;2022-07-30T15:43:52;26.00;78.50
30534;DHT22;17318;52.390;9.754;2022-07-30T15:46:27;25.90;79.10
30534;DHT22;17318;52.390;9.754;2022-07-30T15:48:52;25.90;79.20
30534;DHT22;17318;52.390;9.754;2022-07-30T15:51:21;25.90;79.20
30534;DHT22;17318;52.390;9.754;2022-07-30T15:53:47;25.90;79.30
30534;DHT22;17318;52.390;9.754;2022-07-30T15:56:32;25.90;79.80
30534;DHT22;17318;52.390;9.754;2022-07-30T15:58:57;25.90;79.90
30534;DHT22;17318;52.390;9.754;2022-07-30T16:01:25;25.90;79.90
30534;DHT22;17318;52.390;9.754;2022-07-30T16:03:50;25.90;80.20
30534;DHT22;17318;52.390;9.754;2022-07-30T16:06:24;26.00;79.80
30534;DHT22;17318;52.390;9.754;2022-07-30T16:08:50;26.00;79.50